createdAt,value
2019-05-18T00:01:24.932Z,72.82
2019-05-18T00:03:53.446Z,72.80
2019-05-18T00:06:22.132Z,72.98
2019-05-18T00:08:50.704Z,74.22
2019-05-18T00:11:19.233Z,72.72
2019-05-18T00:13:47.834Z,72.59
2019-05-18T00:16:16.313Z,72.27
2019-05-18T00:18:44.903Z,73.14
2019-05-18T00:21:13.522Z,72.87
2019-05-18T00:23:42.893Z,72.28
2019-05-18T00:26:11.515Z,72.48
2019-05-18T00:28:42.589Z,73.08
2019-05-18T00:31:11.234Z,72.57
2019-05-18T00:33:39.785Z,72.66
2019-05-18T00:36:08.405Z,72.69
2019-05-18T00:38:36.930Z,72.90
2019-05-18T00:41:05.540Z,72.92
2019-05-18T00:43:34.080Z,73.88
2019-05-18T00:46:02.697Z,72.67
2019-05-18T00:48:31.258Z,73.35
2019-05-18T00:50:59.781Z,74.17
2019-05-18T00:53:28.399Z,73.14
2019-05-18T00:55:56.971Z,73.42
2019-05-18T00:58:26.114Z,74.17
2019-05-18T01:00:54.646Z,73.53
2019-05-18T01:03:23.272Z,72.69
2019-05-18T01:05:51.871Z,73.03
2019-05-18T01:08:20.413Z,73.01
2019-05-18T01:10:49.053Z,72.36
2019-05-18T01:13:17.640Z,71.97
2019-05-18T01:15:46.314Z,72.23
2019-05-18T01:18:14.922Z,72.49
2019-05-18T01:20:43.549Z,73.50
2019-05-18T01:23:12.077Z,73.16
2019-05-18T01:25:40.674Z,73.73
2019-05-18T01:28:09.294Z,73.49
2019-05-18T01:30:38.330Z,74.21
2019-05-18T01:33:06.864Z,73.72
2019-05-18T01:35:35.457Z,73.58
2019-05-18T01:38:04.185Z,71.32
2019-05-18T01:40:32.698Z,72.41
2019-05-18T01:43:01.324Z,71.23
2019-05-18T01:45:29.862Z,71.73
2019-05-18T01:48:12.615Z,71.80
2019-05-18T01:50:28.625Z,71.17
2019-05-18T01:52:57.255Z,71.76
2019-05-18T01:55:25.769Z,71.47
2019-05-18T01:57:54.444Z,71.45
2019-05-18T02:00:23.359Z,71.86
2019-05-18T02:02:51.896Z,70.98
2019-05-18T02:05:20.462Z,73.53
2019-05-18T02:07:49.029Z,74.85
2019-05-18T02:10:17.944Z,74.48
2019-05-18T02:12:46.517Z,73.71
2019-05-18T02:15:15.795Z,74.06
2019-05-18T02:17:44.272Z,74.15
2019-05-18T02:20:13.066Z,73.81
2019-05-18T02:22:41.509Z,74.08
2019-05-18T02:25:10.322Z,73.65
2019-05-18T02:27:38.838Z,73.29
2019-05-18T02:30:08.696Z,72.33
2019-05-18T02:32:37.198Z,71.12
2019-05-18T02:35:07.122Z,71.69
2019-05-18T02:37:35.720Z,73.00
2019-05-18T02:40:06.366Z,72.77
2019-05-18T02:42:35.067Z,72.10
2019-05-18T02:45:04.724Z,72.10
2019-05-18T02:47:33.282Z,72.87
2019-05-18T02:50:01.820Z,73.21
2019-05-18T02:52:30.369Z,74.52
2019-05-18T02:54:58.812Z,73.65
2019-05-18T02:57:27.447Z,73.80
2019-05-18T02:59:56.094Z,72.99
2019-05-18T03:02:24.583Z,72.33
2019-05-18T03:04:53.140Z,73.16
2019-05-18T03:07:21.586Z,72.73
2019-05-18T03:09:50.310Z,73.90
2019-05-18T03:12:18.907Z,73.22
2019-05-18T03:14:47.543Z,73.53
2019-05-18T03:17:16.145Z,72.88
2019-05-18T03:19:44.806Z,72.72
2019-05-18T03:22:13.343Z,72.24
2019-05-18T03:24:41.855Z,73.12
2019-05-18T03:27:10.417Z,73.77
2019-05-18T03:29:38.975Z,74.27
2019-05-18T03:32:07.517Z,74.89
2019-05-18T03:34:36.069Z,72.73
2019-05-18T03:37:04.670Z,73.36
2019-05-18T03:39:33.326Z,73.89
2019-05-18T03:42:01.934Z,74.40
2019-05-18T03:44:30.583Z,73.11
2019-05-18T03:46:59.095Z,74.78
2019-05-18T03:49:27.890Z,74.03
2019-05-18T03:51:56.652Z,74.03
2019-05-18T03:54:25.360Z,74.24
2019-05-18T03:56:53.867Z,73.59
2019-05-18T03:59:22.353Z,74.27
2019-05-18T04:01:50.891Z,74.45
2019-05-18T04:04:19.433Z,73.01
2019-05-18T04:06:48.034Z,72.57
2019-05-18T04:09:16.668Z,72.46
2019-05-18T04:11:45.386Z,72.56
2019-05-18T04:14:13.905Z,72.92
2019-05-18T04:16:42.392Z,73.92
2019-05-18T04:19:10.977Z,75.08
2019-05-18T04:21:39.534Z,76.09
2019-05-18T04:24:08.045Z,75.38
2019-05-18T04:26:36.781Z,74.58
2019-05-18T04:29:05.683Z,74.46
2019-05-18T04:31:34.279Z,72.93
2019-05-18T04:34:02.871Z,74.09
2019-05-18T04:36:31.477Z,73.43
2019-05-18T04:38:59.945Z,72.89
2019-05-18T04:41:28.457Z,72.88
2019-05-18T04:43:57.072Z,71.82
2019-05-18T04:46:25.631Z,72.38
2019-05-18T04:48:54.267Z,73.48
2019-05-18T04:51:22.781Z,73.71
2019-05-18T04:53:51.269Z,72.31
2019-05-18T04:56:19.849Z,71.55
2019-05-18T04:58:48.341Z,71.57
2019-05-18T05:01:16.965Z,71.85
2019-05-18T05:03:45.895Z,72.30
2019-05-18T05:06:14.459Z,73.52
2019-05-18T05:08:43.067Z,73.18
2019-05-18T05:11:11.629Z,71.58
2019-05-18T05:13:40.113Z,72.00
2019-05-18T05:16:08.606Z,71.52
2019-05-18T05:18:37.102Z,71.14
2019-05-18T05:21:07.187Z,71.62
2019-05-18T05:23:35.784Z,72.18
2019-05-18T05:26:04.433Z,72.09
2019-05-18T05:28:33.043Z,71.89
2019-05-18T05:31:01.585Z,73.18
2019-05-18T05:33:30.082Z,73.18
2019-05-18T05:35:58.705Z,73.26
2019-05-18T05:38:27.222Z,72.73
2019-05-18T05:40:55.813Z,72.68
2019-05-18T05:43:24.387Z,73.06
2019-05-18T05:45:53.136Z,73.74
2019-05-18T05:48:21.742Z,74.39
2019-05-18T05:50:50.202Z,74.03
2019-05-18T05:53:18.823Z,73.55
2019-05-18T05:55:47.342Z,72.93
2019-05-18T05:58:16.585Z,71.89
2019-05-18T06:00:45.284Z,70.18
2019-05-18T06:03:13.814Z,71.01
2019-05-18T06:05:42.438Z,71.64
2019-05-18T06:08:10.942Z,71.57
2019-05-18T06:10:39.561Z,71.70
2019-05-18T06:13:08.131Z,71.76
2019-05-18T06:15:36.614Z,70.77
2019-05-18T06:18:05.147Z,69.88
2019-05-18T06:20:33.595Z,69.88
2019-05-18T06:23:02.140Z,70.27
2019-05-18T06:25:34.209Z,71.22
2019-05-18T06:28:00.927Z,71.45
2019-05-18T06:30:29.387Z,72.07
2019-05-18T06:32:57.932Z,72.01
2019-05-18T06:35:26.523Z,71.32
2019-05-18T06:37:55.087Z,71.04
2019-05-18T06:40:23.620Z,70.75
2019-05-18T06:42:52.543Z,70.71
2019-05-18T06:45:21.251Z,70.61
2019-05-18T06:47:49.787Z,69.19
2019-05-18T06:50:21.386Z,69.64
2019-05-18T06:52:49.903Z,68.88
2019-05-18T06:55:18.605Z,68.79
2019-05-18T06:57:47.795Z,68.56
2019-05-18T07:00:18.976Z,69.06
2019-05-18T07:02:47.598Z,69.45
2019-05-18T07:05:16.197Z,69.89
2019-05-18T07:07:44.703Z,68.90
2019-05-18T07:10:13.650Z,68.79
2019-05-18T07:12:42.186Z,68.83
2019-05-18T07:15:12.262Z,68.93
2019-05-18T07:17:40.795Z,69.41
2019-05-18T07:20:09.827Z,68.83
2019-05-18T07:22:38.355Z,68.16
2019-05-18T07:25:08.498Z,68.93
2019-05-18T07:27:37.198Z,69.47
2019-05-18T07:30:08.102Z,70.22
2019-05-18T07:32:36.892Z,68.77
2019-05-18T07:35:06.677Z,68.97
2019-05-18T07:37:35.831Z,69.04
2019-05-18T07:40:08.780Z,68.79
2019-05-18T07:42:37.386Z,67.23
2019-05-18T07:45:10.436Z,67.25
2019-05-18T07:47:39.069Z,65.93
2019-05-18T07:50:08.096Z,65.93
2019-05-18T07:52:36.617Z,66.47
2019-05-18T07:55:06.777Z,65.73
2019-05-18T07:57:35.401Z,63.51
2019-05-18T08:00:05.229Z,63.75
2019-05-18T08:02:33.727Z,63.96
2019-05-18T08:05:02.325Z,63.41
2019-05-18T08:07:30.817Z,61.64
2019-05-18T08:09:59.425Z,62.32
2019-05-18T08:12:27.945Z,61.60
2019-05-18T08:14:56.662Z,58.62
2019-05-18T08:17:25.289Z,58.32
2019-05-18T08:19:53.853Z,57.60
2019-05-18T08:22:22.369Z,55.11
2019-05-18T08:24:50.921Z,55.30
2019-05-18T08:27:19.571Z,53.85
2019-05-18T08:29:48.297Z,55.52
2019-05-18T08:32:16.691Z,56.73
2019-05-18T08:34:45.344Z,58.19
2019-05-18T08:37:13.862Z,56.34
2019-05-18T08:39:42.474Z,57.74
2019-05-18T08:42:10.953Z,57.77
2019-05-18T08:44:40.941Z,56.98
2019-05-18T08:47:09.468Z,57.33
2019-05-18T08:49:38.052Z,54.76
2019-05-18T08:52:08.618Z,55.41
2019-05-18T08:54:36.861Z,53.80
2019-05-18T08:57:05.420Z,54.26
2019-05-18T08:59:33.946Z,55.01
2019-05-18T09:02:02.537Z,53.84
2019-05-18T09:04:31.219Z,54.25
2019-05-18T09:06:59.869Z,51.81
2019-05-18T09:09:28.465Z,50.96
2019-05-18T09:11:57.084Z,51.09
2019-05-18T09:14:25.655Z,52.05
2019-05-18T09:16:54.214Z,50.37
2019-05-18T09:19:22.757Z,51.80
2019-05-18T09:21:51.393Z,52.07
2019-05-18T09:24:19.910Z,51.66
2019-05-18T09:26:49.204Z,51.80
2019-05-18T09:29:17.666Z,51.75
2019-05-18T09:31:46.441Z,51.52
2019-05-18T09:34:14.999Z,51.28
2019-05-18T09:36:43.618Z,50.51
2019-05-18T09:39:12.177Z,50.70
2019-05-18T09:41:40.889Z,51.14
2019-05-18T09:44:09.473Z,51.03
2019-05-18T09:46:38.069Z,49.98
2019-05-18T09:49:07.069Z,49.27
2019-05-18T09:51:36.094Z,48.89
2019-05-18T09:54:04.714Z,48.02
2019-05-18T09:56:33.362Z,48.22
2019-05-18T09:59:02.162Z,48.99
2019-05-18T10:01:30.742Z,47.50
2019-05-18T10:03:59.482Z,46.61
2019-05-18T10:06:28.079Z,47.04
2019-05-18T10:08:57.434Z,46.35
2019-05-18T10:11:26.080Z,47.29
2019-05-18T10:13:54.656Z,45.68
2019-05-18T10:16:23.701Z,44.98
2019-05-18T10:18:52.412Z,44.45
2019-05-18T10:21:21.026Z,44.50
2019-05-18T10:23:49.526Z,43.81
2019-05-18T10:26:18.178Z,43.22
2019-05-18T10:28:46.917Z,43.99
2019-05-18T10:31:15.582Z,43.05
2019-05-18T10:33:44.262Z,43.20
2019-05-18T10:36:12.923Z,41.58
2019-05-18T10:38:41.429Z,42.22
2019-05-18T10:41:10.104Z,42.89
2019-05-18T10:43:38.617Z,42.85
2019-05-18T10:46:07.210Z,42.78
2019-05-18T10:48:35.840Z,43.06
2019-05-18T10:51:05.710Z,41.42
2019-05-18T10:53:34.331Z,41.91
2019-05-18T10:56:03.072Z,42.32
2019-05-18T10:58:33.685Z,42.11
2019-05-18T11:01:02.325Z,41.41
2019-05-18T11:03:30.974Z,40.31
2019-05-18T11:05:59.548Z,40.09
2019-05-18T11:08:28.071Z,40.93
2019-05-18T11:10:56.633Z,41.56
2019-05-18T11:13:25.200Z,41.11
2019-05-18T11:15:54.443Z,40.66
2019-05-18T11:18:23.050Z,41.21
2019-05-18T11:20:51.669Z,41.94
2019-05-18T11:23:20.283Z,42.02
2019-05-18T11:25:48.884Z,41.61
2019-05-18T11:28:17.447Z,42.10
2019-05-18T11:30:46.158Z,39.45
2019-05-18T11:33:14.742Z,40.52
2019-05-18T11:35:43.355Z,38.32
2019-05-18T11:38:11.989Z,37.34
2019-05-18T11:40:40.627Z,38.74
2019-05-18T11:43:09.212Z,37.87
2019-05-18T11:45:39.460Z,37.06
2019-05-18T11:48:08.021Z,37.31
2019-05-18T11:50:36.617Z,37.45
2019-05-18T11:53:05.242Z,36.86
2019-05-18T11:55:33.881Z,37.19
2019-05-18T11:58:02.504Z,37.41
2019-05-18T12:00:31.166Z,39.08
2019-05-18T12:02:59.741Z,38.72
2019-05-18T12:05:28.261Z,38.21
2019-05-18T12:07:56.874Z,37.85
2019-05-18T12:10:27.441Z,37.68
2019-05-18T12:12:56.060Z,38.20
2019-05-18T12:15:25.459Z,37.61
2019-05-18T12:17:54.047Z,37.76
2019-05-18T12:20:22.728Z,37.17
2019-05-18T12:22:51.278Z,37.15
2019-05-18T12:25:19.971Z,38.02
2019-05-18T12:27:48.637Z,37.77
2019-05-18T12:30:17.988Z,37.07
2019-05-18T12:32:46.620Z,37.72
2019-05-18T12:35:16.847Z,37.45
2019-05-18T12:37:45.368Z,37.52
2019-05-18T12:40:16.907Z,38.88
2019-05-18T12:42:45.569Z,38.52
2019-05-18T12:45:16.261Z,37.50
2019-05-18T12:47:44.780Z,37.21
2019-05-18T12:50:14.747Z,38.73
2019-05-18T12:52:43.283Z,38.23
2019-05-18T12:55:12.456Z,38.54
2019-05-18T12:57:41.109Z,36.49
2019-05-18T13:00:12.296Z,35.73
2019-05-18T13:02:40.876Z,36.23
2019-05-18T13:05:09.875Z,35.31
2019-05-18T13:07:38.500Z,33.39
2019-05-18T13:10:09.840Z,35.12
2019-05-18T13:12:38.637Z,34.14
2019-05-18T13:15:09.263Z,34.97
2019-05-18T13:17:37.907Z,34.18
2019-05-18T13:20:08.430Z,34.21
2019-05-18T13:22:37.048Z,35.54
2019-05-18T13:25:06.749Z,34.06
2019-05-18T13:27:39.547Z,33.10
2019-05-18T13:30:11.057Z,34.35
2019-05-18T13:32:39.767Z,35.08
2019-05-18T13:35:09.685Z,34.58
2019-05-18T13:37:38.205Z,34.07
2019-05-18T13:40:08.481Z,34.71
2019-05-18T13:42:37.142Z,35.44
2019-05-18T13:45:08.101Z,34.73
2019-05-18T13:47:36.721Z,33.44
2019-05-18T13:50:06.149Z,33.43
2019-05-18T13:52:34.769Z,34.38
2019-05-18T13:55:05.168Z,34.84
2019-05-18T13:57:33.977Z,35.32
2019-05-18T14:00:02.582Z,34.91
2019-05-18T14:02:31.186Z,34.40
2019-05-18T14:04:59.785Z,34.40
2019-05-18T14:07:28.505Z,33.87
2019-05-18T14:09:57.096Z,33.04
2019-05-18T14:12:25.715Z,34.22
2019-05-18T14:14:54.321Z,32.72
2019-05-18T14:17:22.779Z,32.56
2019-05-18T14:19:51.414Z,33.42
2019-05-18T14:22:20.040Z,33.79
2019-05-18T14:24:48.578Z,33.87
2019-05-18T14:27:17.160Z,32.76
2019-05-18T14:29:45.791Z,34.54
2019-05-18T14:32:14.308Z,33.57
2019-05-18T14:34:42.924Z,34.29
2019-05-18T14:37:11.624Z,33.50
2019-05-18T14:39:40.247Z,34.63
2019-05-18T14:42:08.850Z,33.18
2019-05-18T14:44:37.394Z,33.49
2019-05-18T14:47:06.049Z,34.08
2019-05-18T14:49:34.606Z,32.64
2019-05-18T14:52:03.211Z,34.11
2019-05-18T14:54:31.818Z,33.54
2019-05-18T14:57:00.406Z,32.95
2019-05-18T14:59:28.999Z,33.02
2019-05-18T15:01:57.723Z,33.35
2019-05-18T15:04:26.322Z,33.30
2019-05-18T15:06:54.840Z,32.36
2019-05-18T15:09:23.374Z,31.46
2019-05-18T15:11:52.056Z,33.09
2019-05-18T15:14:20.680Z,32.30
2019-05-18T15:16:49.300Z,32.90
2019-05-18T15:19:17.978Z,32.95
2019-05-18T15:21:46.604Z,33.42
2019-05-18T15:24:15.228Z,33.44
2019-05-18T15:26:43.835Z,33.22
2019-05-18T15:29:12.420Z,32.80
2019-05-18T15:31:41.040Z,34.10
2019-05-18T15:34:09.648Z,36.61
2019-05-18T15:36:38.269Z,40.99
2019-05-18T15:39:07.516Z,43.78
2019-05-18T15:41:36.134Z,47.37
2019-05-18T15:44:05.018Z,50.96
2019-05-18T15:46:33.638Z,52.93
2019-05-18T15:49:02.229Z,55.11
2019-05-18T15:51:30.831Z,57.47
2019-05-18T15:53:59.435Z,58.06
2019-05-18T15:56:28.269Z,57.99
2019-05-18T15:58:56.859Z,59.07
2019-05-18T16:01:25.484Z,60.41
2019-05-18T16:03:54.886Z,60.41
2019-05-18T16:06:23.638Z,62.01
2019-05-18T16:08:52.261Z,62.76
2019-05-18T16:11:20.788Z,62.55
2019-05-18T16:13:49.324Z,60.37
2019-05-18T16:16:17.981Z,58.78
2019-05-18T16:18:46.639Z,60.65
2019-05-18T16:21:15.221Z,60.18
2019-05-18T16:23:43.858Z,61.77
2019-05-18T16:26:21.173Z,63.07
2019-05-18T16:28:42.737Z,62.52
2019-05-18T16:31:11.453Z,62.47
2019-05-18T16:33:40.054Z,61.66
2019-05-18T16:36:08.666Z,62.51
2019-05-18T16:38:37.249Z,64.55
2019-05-18T16:41:24.733Z,64.07
2019-05-18T16:43:53.315Z,64.23
2019-05-18T16:46:21.903Z,64.84
2019-05-18T16:48:50.599Z,65.59
2019-05-18T16:51:19.258Z,66.05
2019-05-18T16:53:50.160Z,65.87
2019-05-18T16:56:18.244Z,66.28
2019-05-18T16:58:46.824Z,66.28
2019-05-18T17:01:15.334Z,66.73
2019-05-18T17:03:43.955Z,67.44
2019-05-18T17:06:12.643Z,65.78
2019-05-18T17:08:41.277Z,66.02
2019-05-18T17:11:09.785Z,66.20
2019-05-18T17:13:38.427Z,66.07
2019-05-18T17:16:07.079Z,66.79
2019-05-18T17:18:35.703Z,66.64
2019-05-18T17:21:04.694Z,66.35
2019-05-18T17:23:33.253Z,66.45
2019-05-18T17:26:01.844Z,67.18
2019-05-18T17:28:30.331Z,66.97
2019-05-18T17:30:59.330Z,67.86
2019-05-18T17:33:27.922Z,68.93
2019-05-18T17:36:00.290Z,69.04
2019-05-18T17:38:26.838Z,68.68
2019-05-18T17:40:55.540Z,68.53
2019-05-18T17:43:24.150Z,68.93
2019-05-18T17:45:52.795Z,69.76
2019-05-18T17:48:21.410Z,69.52
2019-05-18T17:50:49.975Z,70.31
2019-05-18T17:53:18.627Z,70.48
2019-05-18T17:55:47.228Z,70.33
2019-05-18T17:58:15.820Z,71.26
2019-05-18T18:00:44.709Z,70.97
2019-05-18T18:03:13.222Z,70.78
2019-05-18T18:05:41.852Z,70.13
2019-05-18T18:08:10.427Z,71.17
2019-05-18T18:10:39.135Z,70.94
2019-05-18T18:13:09.575Z,71.43
2019-05-18T18:15:38.310Z,71.99
2019-05-18T18:18:06.909Z,71.50
2019-05-18T18:20:35.521Z,72.17
2019-05-18T18:23:04.148Z,71.03
2019-05-18T18:25:32.661Z,71.60
2019-05-18T18:28:01.302Z,71.60
2019-05-18T18:30:29.820Z,71.51
2019-05-18T18:32:58.444Z,71.79
2019-05-18T18:35:28.549Z,71.69
2019-05-18T18:37:57.185Z,71.24
2019-05-18T18:40:25.800Z,71.64
2019-05-18T18:42:54.414Z,70.75
2019-05-18T18:45:22.996Z,70.43
2019-05-18T18:47:51.602Z,70.52
2019-05-18T18:50:20.239Z,71.51
2019-05-18T18:52:48.851Z,71.35
2019-05-18T18:55:17.447Z,71.04
2019-05-18T18:57:46.021Z,70.80
2019-05-18T19:00:16.025Z,71.23
2019-05-18T19:02:44.743Z,71.81
2019-05-18T19:05:13.733Z,71.72
2019-05-18T19:07:42.378Z,72.21
2019-05-18T19:10:11.350Z,72.09
2019-05-18T19:12:39.839Z,72.07
2019-05-18T19:15:10.292Z,71.88
2019-05-18T19:17:38.945Z,71.81
2019-05-18T19:20:08.083Z,71.15
2019-05-18T19:22:36.624Z,69.99
2019-05-18T19:25:05.878Z,69.21
2019-05-18T19:27:34.515Z,68.50
2019-05-18T19:30:03.875Z,67.80
2019-05-18T19:32:32.527Z,68.68
2019-05-18T19:35:01.703Z,69.96
2019-05-18T19:37:30.316Z,69.73
2019-05-18T19:39:58.883Z,69.21
2019-05-18T19:42:27.526Z,68.58
2019-05-18T19:44:56.111Z,68.66
2019-05-18T19:47:24.629Z,68.41
2019-05-18T19:49:53.151Z,67.96
2019-05-18T19:52:21.759Z,67.78
2019-05-18T19:54:50.485Z,68.83
2019-05-18T19:57:19.148Z,69.57
2019-05-18T19:59:47.795Z,70.43
2019-05-18T20:02:18.469Z,71.96
2019-05-18T20:05:05.870Z,71.94
2019-05-18T20:07:17.060Z,71.77
2019-05-18T20:09:45.712Z,72.38
2019-05-18T20:12:14.306Z,73.39
2019-05-18T20:14:42.820Z,73.09
2019-05-18T20:17:11.485Z,73.68
2019-05-18T20:19:40.052Z,74.24
2019-05-18T20:22:08.724Z,74.22
2019-05-18T20:24:37.254Z,74.47
2019-05-18T20:27:05.865Z,74.92
2019-05-18T20:29:34.434Z,74.52
2019-05-18T20:32:03.034Z,74.37
2019-05-18T20:34:32.672Z,74.88
2019-05-18T20:37:01.311Z,75.35
2019-05-18T20:39:29.881Z,75.29
2019-05-18T20:41:58.433Z,75.38
2019-05-18T20:44:26.912Z,75.13
2019-05-18T20:46:55.615Z,75.33
2019-05-18T20:49:24.227Z,75.23
2019-05-18T20:51:52.881Z,74.79
2019-05-18T20:54:21.588Z,75.36
2019-05-18T20:56:50.294Z,75.36
2019-05-18T20:59:18.752Z,74.72
2019-05-18T21:01:47.388Z,74.69
2019-05-18T21:04:16.007Z,75.45
2019-05-18T21:06:45.615Z,76.39
2019-05-18T21:09:14.434Z,75.56
2019-05-18T21:11:42.998Z,74.93
2019-05-18T21:14:11.583Z,74.77
2019-05-18T21:16:40.190Z,74.24
2019-05-18T21:19:08.730Z,73.69
2019-05-18T21:21:37.272Z,74.47
2019-05-18T21:24:05.993Z,75.66
2019-05-18T21:26:34.674Z,75.09
2019-05-18T21:29:04.028Z,74.74
2019-05-18T21:31:33.109Z,73.64
2019-05-18T21:34:01.629Z,72.83
2019-05-18T21:36:30.132Z,73.05
2019-05-18T21:38:58.694Z,73.71
2019-05-18T21:41:27.327Z,73.42
2019-05-18T21:43:55.919Z,72.92
2019-05-18T21:46:24.543Z,73.36
2019-05-18T21:48:53.146Z,74.23
2019-05-18T21:51:21.719Z,73.86
2019-05-18T21:53:50.373Z,73.28
2019-05-18T21:56:18.873Z,73.87
2019-05-18T21:58:47.402Z,73.68
2019-05-18T22:01:16.042Z,73.88
2019-05-18T22:03:48.034Z,74.44
2019-05-18T22:06:14.997Z,74.81
2019-05-18T22:08:44.407Z,75.82
2019-05-18T22:11:13.085Z,75.67
2019-05-18T22:13:41.706Z,75.86
2019-05-18T22:16:10.264Z,75.32
2019-05-18T22:18:38.803Z,75.33
2019-05-18T22:21:07.545Z,74.96
2019-05-18T22:23:35.948Z,75.01
2019-05-18T22:26:04.578Z,74.20
2019-05-18T22:28:33.849Z,73.94
2019-05-18T22:31:02.463Z,73.10
2019-05-18T22:33:30.922Z,73.55
2019-05-18T22:35:59.473Z,74.06
2019-05-18T22:38:28.103Z,72.86
2019-05-18T22:40:56.628Z,72.89
2019-05-18T22:43:25.172Z,72.56
2019-05-18T22:45:53.856Z,73.01
2019-05-18T22:48:22.517Z,72.03
2019-05-18T22:50:51.126Z,72.34
2019-05-18T22:53:19.747Z,71.93
2019-05-18T22:55:48.339Z,72.32
2019-05-18T22:58:16.779Z,72.72
2019-05-18T23:00:45.417Z,72.83
2019-05-18T23:03:14.009Z,71.95
2019-05-18T23:05:42.594Z,71.70
2019-05-18T23:08:11.269Z,71.70
2019-05-18T23:10:39.921Z,71.32
2019-05-18T23:13:08.440Z,71.77
2019-05-18T23:15:37.100Z,71.35
2019-05-18T23:18:05.785Z,72.74
2019-05-18T23:20:34.537Z,73.44
2019-05-18T23:23:03.271Z,73.64
2019-05-18T23:25:31.889Z,73.50
2019-05-18T23:28:00.453Z,73.57
2019-05-18T23:30:28.978Z,73.72
2019-05-18T23:32:57.622Z,72.96
2019-05-18T23:35:26.189Z,73.48
2019-05-18T23:37:54.750Z,73.92
2019-05-18T23:40:23.360Z,74.44
2019-05-18T23:42:51.922Z,75.08
2019-05-18T23:45:21.434Z,74.13
2019-05-18T23:47:50.042Z,74.13
2019-05-18T23:50:18.649Z,74.87
2019-05-18T23:52:47.369Z,75.32
2019-05-18T23:55:16.008Z,75.99
2019-05-18T23:57:44.510Z,75.68
